sensor_id;sensor_type;location;lat;lon;timestamp;temperature;humidity
11320;DHT22;5715;48.234;14.320;2023-03-14T00:01:32;4.00;99.90
11320;DHT22;5715;48.234;14.320;2023-03-14T00:04:19;4.00;99.90
11320;DHT22;5715;48.234;14.320;2023-03-14T00:07:07;4.00;99.90
11320;DHT22;5715;48.234;14.320;2023-03-14T00:09:57;4.00;99.90
11320;DHT22;5715;48.234;14.320;2023-03-14T00:12:44;4.00;99.90
11320;DHT22;5715;48.234;14.320;2023-03-14T00:15:33;4.10;99.90
11320;DHT22;5715;48.234;14.320;2023-03-14T00:18:24;4.10;99.90
11320;DHT22;5715;48.234;14.320;2023-03-14T00:21:12;4.20;99.90
11320;DHT22;5715;48.234;14.320;2023-03-14T00:24:00;4.20;99.90
11320;DHT22;5715;48.234;14.320;2023-03-14T00:26:48;4.20;99.90
11320;DHT22;5715;48.234;14.320;2023-03-14T00:29:35;4.20;99.90
11320;DHT22;5715;48.234;14.320;2023-03-14T00:32:23;4.20;99.90
11320;DHT22;5715;48.234;14.320;2023-03-14T00:35:10;4.20;99.90
11320;DHT22;5715;48.234;14.320;2023-03-14T00:37:58;4.20;99.90
11320;DHT22;5715;48.234;14.320;2023-03-14T00:40:45;4.20;99.90
11320;DHT22;5715;48.234;14.320;2023-03-14T00:43:33;4.20;99.90
11320;DHT22;5715;48.234;14.320;2023-03-14T00:46:21;4.20;99.90
11320;DHT22;5715;48.234;14.320;2023-03-14T00:49:08;4.20;99.90
11320;DHT22;5715;48.234;14.320;2023-03-14T00:51:56;4.20;99.90
11320;DHT22;5715;48.234;14.320;2023-03-14T00:54:44;4.30;99.90
11320;DHT22;5715;48.234;14.320;2023-03-14T00:57:31;4.40;99.90
11320;DHT22;5715;48.234;14.320;2023-03-14T01:00:21;4.40;99.90
11320;DHT22;5715;48.234;14.320;2023-03-14T01:03:10;4.50;99.90
11320;DHT22;5715;48.234;14.320;2023-03-14T01:06:20;4.60;99.90
11320;DHT22;5715;48.234;14.320;2023-03-14T01:09:09;4.60;99.90
11320;DHT22;5715;48.234;14.320;2023-03-14T01:12:00;4.80;99.90
11320;DHT22;5715;48.234;14.320;2023-03-14T01:14:51;4.80;99.90
11320;DHT22;5715;48.234;14.320;2023-03-14T01:17:38;4.80;99.90
11320;DHT22;5715;48.234;14.320;2023-03-14T01:20:26;4.80;99.90
11320;DHT22;5715;48.234;14.320;2023-03-14T01:23:14;4.80;99.90
11320;DHT22;5715;48.234;14.320;2023-03-14T01:26:02;4.80;99.90
11320;DHT22;5715;48.234;14.320;2023-03-14T01:28:50;4.70;99.90
11320;DHT22;5715;48.234;14.320;2023-03-14T01:31:40;4.70;99.90
11320;DHT22;5715;48.234;14.320;2023-03-14T01:34:28;4.70;99.90
11320;DHT22;5715;48.234;14.320;2023-03-14T01:37:15;4.80;99.90
11320;DHT22;5715;48.234;14.320;2023-03-14T01:40:03;4.90;99.90
11320;DHT22;5715;48.234;14.320;2023-03-14T01:43:12;4.90;99.90
11320;DHT22;5715;48.234;14.320;2023-03-14T01:55:23;5.10;99.90
11320;DHT22;5715;48.234;14.320;2023-03-14T01:58:16;5.20;99.90
11320;DHT22;5715;48.234;14.320;2023-03-14T02:01:06;5.30;99.90
11320;DHT22;5715;48.234;14.320;2023-03-14T02:03:59;5.50;99.90
11320;DHT22;5715;48.234;14.320;2023-03-14T02:07:03;5.70;99.90
11320;DHT22;5715;48.234;14.320;2023-03-14T02:09:58;5.80;99.90
11320;DHT22;5715;48.234;14.320;2023-03-14T02:12:48;5.90;99.90
11320;DHT22;5715;48.234;14.320;2023-03-14T02:15:38;6.00;99.90
11320;DHT22;5715;48.234;14.320;2023-03-14T02:18:26;6.10;99.90
11320;DHT22;5715;48.234;14.320;2023-03-14T02:21:47;6.10;99.90
11320;DHT22;5715;48.234;14.320;2023-03-14T02:24:51;6.10;99.90
11320;DHT22;5715;48.234;14.320;2023-03-14T02:27:45;6.00;99.90
11320;DHT22;5715;48.234;14.320;2023-03-14T02:30:34;6.00;99.90
11320;DHT22;5715;48.234;14.320;2023-03-14T02:33:23;6.00;99.90
11320;DHT22;5715;48.234;14.320;2023-03-14T02:36:13;6.10;99.90
11320;DHT22;5715;48.234;14.320;2023-03-14T02:39:44;6.10;99.90
11320;DHT22;5715;48.234;14.320;2023-03-14T02:42:26;6.20;99.90
11320;DHT22;5715;48.234;14.320;2023-03-14T02:48:06;6.20;99.90
11320;DHT22;5715;48.234;14.320;2023-03-14T02:50:59;6.20;99.90
11320;DHT22;5715;48.234;14.320;2023-03-14T02:53:48;6.20;99.90
11320;DHT22;5715;48.234;14.320;2023-03-14T02:56:35;6.20;99.90
11320;DHT22;5715;48.234;14.320;2023-03-14T02:59:24;6.30;99.90
11320;DHT22;5715;48.234;14.320;2023-03-14T03:02:11;6.30;99.90
11320;DHT22;5715;48.234;14.320;2023-03-14T03:04:59;6.30;99.90
11320;DHT22;5715;48.234;14.320;2023-03-14T03:07:46;6.40;99.90
11320;DHT22;5715;48.234;14.320;2023-03-14T03:10:34;6.40;99.90
11320;DHT22;5715;48.234;14.320;2023-03-14T03:13:21;6.50;99.90
11320;DHT22;5715;48.234;14.320;2023-03-14T03:16:09;6.50;99.90
11320;DHT22;5715;48.234;14.320;2023-03-14T03:18:57;6.50;99.90
11320;DHT22;5715;48.234;14.320;2023-03-14T03:21:44;6.50;99.90
11320;DHT22;5715;48.234;14.320;2023-03-14T03:24:32;6.50;99.90
11320;DHT22;5715;48.234;14.320;2023-03-14T03:27:19;6.40;99.90
11320;DHT22;5715;48.234;14.320;2023-03-14T03:30:07;6.40;99.90
11320;DHT22;5715;48.234;14.320;2023-03-14T03:32:55;6.30;99.90
11320;DHT22;5715;48.234;14.320;2023-03-14T03:35:45;6.30;99.90
11320;DHT22;5715;48.234;14.320;2023-03-14T03:38:34;6.30;99.90
11320;DHT22;5715;48.234;14.320;2023-03-14T03:41:22;6.30;99.90
11320;DHT22;5715;48.234;14.320;2023-03-14T03:44:10;6.30;99.90
11320;DHT22;5715;48.234;14.320;2023-03-14T03:46:57;6.40;99.90
11320;DHT22;5715;48.234;14.320;2023-03-14T03:49:45;6.40;99.90
11320;DHT22;5715;48.234;14.320;2023-03-14T03:52:33;6.50;99.90
11320;DHT22;5715;48.234;14.320;2023-03-14T03:55:20;6.50;99.90
11320;DHT22;5715;48.234;14.320;2023-03-14T03:58:08;6.50;99.90
11320;DHT22;5715;48.234;14.320;2023-03-14T04:00:55;6.50;99.90
11320;DHT22;5715;48.234;14.320;2023-03-14T04:03:43;6.50;99.90
11320;DHT22;5715;48.234;14.320;2023-03-14T04:06:31;6.50;99.90
11320;DHT22;5715;48.234;14.320;2023-03-14T04:09:18;6.60;99.90
11320;DHT22;5715;48.234;14.320;2023-03-14T04:12:06;6.60;99.90
11320;DHT22;5715;48.234;14.320;2023-03-14T04:14:53;6.70;99.90
11320;DHT22;5715;48.234;14.320;2023-03-14T04:17:41;6.70;99.90
11320;DHT22;5715;48.234;14.320;2023-03-14T04:20:28;6.80;99.90
11320;DHT22;5715;48.234;14.320;2023-03-14T04:23:16;6.80;99.90
11320;DHT22;5715;48.234;14.320;2023-03-14T04:26:03;6.90;99.90
11320;DHT22;5715;48.234;14.320;2023-03-14T04:28:51;7.00;99.90
11320;DHT22;5715;48.234;14.320;2023-03-14T04:31:39;6.90;99.90
11320;DHT22;5715;48.234;14.320;2023-03-14T04:34:26;7.00;99.90
11320;DHT22;5715;48.234;14.320;2023-03-14T04:37:14;7.00;99.90
11320;DHT22;5715;48.234;14.320;2023-03-14T04:40:02;7.00;99.90
11320;DHT22;5715;48.234;14.320;2023-03-14T04:42:53;7.00;99.90
11320;DHT22;5715;48.234;14.320;2023-03-14T04:45:43;7.10;99.90
11320;DHT22;5715;48.234;14.320;2023-03-14T04:48:31;7.10;99.90
11320;DHT22;5715;48.234;14.320;2023-03-14T04:51:18;7.20;99.90
11320;DHT22;5715;48.234;14.320;2023-03-14T04:54:07;7.20;99.90
11320;DHT22;5715;48.234;14.320;2023-03-14T04:56:55;7.30;99.90
11320;DHT22;5715;48.234;14.320;2023-03-14T04:59:42;7.30;99.90
11320;DHT22;5715;48.234;14.320;2023-03-14T05:02:29;7.30;99.90
11320;DHT22;5715;48.234;14.320;2023-03-14T05:05:17;7.30;99.90
11320;DHT22;5715;48.234;14.320;2023-03-14T05:08:05;7.30;99.90
11320;DHT22;5715;48.234;14.320;2023-03-14T05:10:57;7.20;99.90
11320;DHT22;5715;48.234;14.320;2023-03-14T05:13:45;7.20;99.90
11320;DHT22;5715;48.234;14.320;2023-03-14T05:16:33;7.20;99.90
11320;DHT22;5715;48.234;14.320;2023-03-14T05:19:20;7.20;99.90
11320;DHT22;5715;48.234;14.320;2023-03-14T05:22:08;7.20;99.90
11320;DHT22;5715;48.234;14.320;2023-03-14T05:24:55;7.30;99.90
11320;DHT22;5715;48.234;14.320;2023-03-14T05:27:45;7.30;99.90
11320;DHT22;5715;48.234;14.320;2023-03-14T05:30:33;7.30;99.90
11320;DHT22;5715;48.234;14.320;2023-03-14T05:33:20;7.30;99.90
11320;DHT22;5715;48.234;14.320;2023-03-14T05:36:08;7.40;99.90
11320;DHT22;5715;48.234;14.320;2023-03-14T05:38:56;7.40;99.90
11320;DHT22;5715;48.234;14.320;2023-03-14T05:41:43;7.40;99.90
11320;DHT22;5715;48.234;14.320;2023-03-14T05:44:31;7.50;99.90
11320;DHT22;5715;48.234;14.320;2023-03-14T05:47:18;7.60;99.90
11320;DHT22;5715;48.234;14.320;2023-03-14T05:50:06;7.60;99.90
11320;DHT22;5715;48.234;14.320;2023-03-14T05:52:54;7.70;99.90
11320;DHT22;5715;48.234;14.320;2023-03-14T05:55:42;7.80;99.90
11320;DHT22;5715;48.234;14.320;2023-03-14T05:58:29;7.80;99.90
11320;DHT22;5715;48.234;14.320;2023-03-14T06:01:16;7.90;99.90
11320;DHT22;5715;48.234;14.320;2023-03-14T06:04:04;7.90;99.90
11320;DHT22;5715;48.234;14.320;2023-03-14T06:06:52;8.00;99.90
11320;DHT22;5715;48.234;14.320;2023-03-14T06:09:39;8.10;99.90
11320;DHT22;5715;48.234;14.320;2023-03-14T06:12:27;8.10;99.90
11320;DHT22;5715;48.234;14.320;2023-03-14T06:15:15;8.20;99.90
11320;DHT22;5715;48.234;14.320;2023-03-14T06:18:02;8.30;99.90
11320;DHT22;5715;48.234;14.320;2023-03-14T06:20:54;8.40;99.90
11320;DHT22;5715;48.234;14.320;2023-03-14T06:23:42;8.50;99.90
11320;DHT22;5715;48.234;14.320;2023-03-14T06:26:30;8.50;99.90
11320;DHT22;5715;48.234;14.320;2023-03-14T06:29:17;8.50;99.90
11320;DHT22;5715;48.234;14.320;2023-03-14T06:32:05;8.60;99.90
11320;DHT22;5715;48.234;14.320;2023-03-14T06:34:52;8.70;99.90
11320;DHT22;5715;48.234;14.320;2023-03-14T06:37:40;8.60;99.90
11320;DHT22;5715;48.234;14.320;2023-03-14T06:40:28;8.40;99.90
11320;DHT22;5715;48.234;14.320;2023-03-14T06:43:17;8.20;99.90
11320;DHT22;5715;48.234;14.320;2023-03-14T06:46:05;8.10;99.90
11320;DHT22;5715;48.234;14.320;2023-03-14T06:48:52;8.10;99.90
11320;DHT22;5715;48.234;14.320;2023-03-14T06:51:40;8.00;99.90
11320;DHT22;5715;48.234;14.320;2023-03-14T06:54:28;8.00;99.90
11320;DHT22;5715;48.234;14.320;2023-03-14T06:57:15;8.00;99.90
11320;DHT22;5715;48.234;14.320;2023-03-14T07:00:04;7.90;99.90
11320;DHT22;5715;48.234;14.320;2023-03-14T07:02:52;8.00;99.90
11320;DHT22;5715;48.234;14.320;2023-03-14T07:05:40;8.00;99.90
11320;DHT22;5715;48.234;14.320;2023-03-14T07:08:28;8.10;99.90
11320;DHT22;5715;48.234;14.320;2023-03-14T07:11:15;8.20;99.90
11320;DHT22;5715;48.234;14.320;2023-03-14T07:14:03;8.30;99.90
11320;DHT22;5715;48.234;14.320;2023-03-14T07:16:50;8.40;99.90
11320;DHT22;5715;48.234;14.320;2023-03-14T07:19:38;8.50;99.90
11320;DHT22;5715;48.234;14.320;2023-03-14T07:22:26;8.50;99.90
11320;DHT22;5715;48.234;14.320;2023-03-14T07:25:14;8.50;99.90
11320;DHT22;5715;48.234;14.320;2023-03-14T07:28:01;8.60;99.90
11320;DHT22;5715;48.234;14.320;2023-03-14T07:30:49;8.70;99.90
11320;DHT22;5715;48.234;14.320;2023-03-14T07:33:36;8.70;99.90
11320;DHT22;5715;48.234;14.320;2023-03-14T07:36:24;8.80;99.90
11320;DHT22;5715;48.234;14.320;2023-03-14T07:39:11;9.00;99.90
11320;DHT22;5715;48.234;14.320;2023-03-14T07:41:59;9.10;99.90
11320;DHT22;5715;48.234;14.320;2023-03-14T07:44:47;9.20;99.90
11320;DHT22;5715;48.234;14.320;2023-03-14T07:47:35;9.20;99.90
11320;DHT22;5715;48.234;14.320;2023-03-14T07:50:23;9.20;99.90
11320;DHT22;5715;48.234;14.320;2023-03-14T07:53:11;9.20;99.90
11320;DHT22;5715;48.234;14.320;2023-03-14T07:55:59;9.30;99.90
11320;DHT22;5715;48.234;14.320;2023-03-14T07:58:47;9.30;99.90
11320;DHT22;5715;48.234;14.320;2023-03-14T08:01:34;9.20;99.90
11320;DHT22;5715;48.234;14.320;2023-03-14T08:04:22;9.20;99.90
11320;DHT22;5715;48.234;14.320;2023-03-14T08:07:09;9.20;99.90
11320;DHT22;5715;48.234;14.320;2023-03-14T08:09:57;9.20;99.90
11320;DHT22;5715;48.234;14.320;2023-03-14T08:12:44;9.20;99.90
11320;DHT22;5715;48.234;14.320;2023-03-14T08:15:32;9.30;99.90
11320;DHT22;5715;48.234;14.320;2023-03-14T08:18:19;9.30;99.90
11320;DHT22;5715;48.234;14.320;2023-03-14T08:21:07;9.30;99.90
11320;DHT22;5715;48.234;14.320;2023-03-14T08:23:54;9.30;99.90
11320;DHT22;5715;48.234;14.320;2023-03-14T08:26:42;9.30;99.90
11320;DHT22;5715;48.234;14.320;2023-03-14T08:29:29;9.30;99.90
11320;DHT22;5715;48.234;14.320;2023-03-14T08:32:17;9.40;99.90
11320;DHT22;5715;48.234;14.320;2023-03-14T08:35:08;9.30;99.90
11320;DHT22;5715;48.234;14.320;2023-03-14T08:37:56;9.20;99.90
11320;DHT22;5715;48.234;14.320;2023-03-14T08:40:44;9.20;99.90
11320;DHT22;5715;48.234;14.320;2023-03-14T08:43:32;9.10;99.90
11320;DHT22;5715;48.234;14.320;2023-03-14T08:46:20;9.10;99.90
11320;DHT22;5715;48.234;14.320;2023-03-14T08:49:08;9.10;99.90
11320;DHT22;5715;48.234;14.320;2023-03-14T08:51:55;9.10;99.90
11320;DHT22;5715;48.234;14.320;2023-03-14T08:54:46;9.20;99.90
11320;DHT22;5715;48.234;14.320;2023-03-14T08:57:33;9.20;99.90
11320;DHT22;5715;48.234;14.320;2023-03-14T09:00:21;9.20;99.90
11320;DHT22;5715;48.234;14.320;2023-03-14T09:03:09;9.20;99.90
11320;DHT22;5715;48.234;14.320;2023-03-14T09:06:02;9.20;99.90
11320;DHT22;5715;48.234;14.320;2023-03-14T09:08:53;9.10;99.90
11320;DHT22;5715;48.234;14.320;2023-03-14T09:11:41;9.20;99.90
11320;DHT22;5715;48.234;14.320;2023-03-14T09:14:28;9.20;99.90
11320;DHT22;5715;48.234;14.320;2023-03-14T09:17:16;9.10;99.90
11320;DHT22;5715;48.234;14.320;2023-03-14T09:20:05;9.10;99.90
11320;DHT22;5715;48.234;14.320;2023-03-14T09:22:54;9.10;99.90
11320;DHT22;5715;48.234;14.320;2023-03-14T09:25:42;9.10;99.90
11320;DHT22;5715;48.234;14.320;2023-03-14T09:28:29;9.10;99.90
11320;DHT22;5715;48.234;14.320;2023-03-14T09:31:17;9.10;99.90
11320;DHT22;5715;48.234;14.320;2023-03-14T09:34:05;9.10;99.90
11320;DHT22;5715;48.234;14.320;2023-03-14T09:36:52;9.00;99.90
11320;DHT22;5715;48.234;14.320;2023-03-14T09:39:40;9.00;99.90
11320;DHT22;5715;48.234;14.320;2023-03-14T09:42:28;9.00;99.90
11320;DHT22;5715;48.234;14.320;2023-03-14T09:45:53;9.00;99.90
11320;DHT22;5715;48.234;14.320;2023-03-14T09:48:35;9.00;99.90
11320;DHT22;5715;48.234;14.320;2023-03-14T09:51:22;9.00;99.90
11320;DHT22;5715;48.234;14.320;2023-03-14T09:54:34;8.90;99.90
11320;DHT22;5715;48.234;14.320;2023-03-14T09:57:42;9.00;99.90
11320;DHT22;5715;48.234;14.320;2023-03-14T10:00:32;9.00;99.90
11320;DHT22;5715;48.234;14.320;2023-03-14T10:03:31;9.00;99.90
11320;DHT22;5715;48.234;14.320;2023-03-14T10:06:29;9.00;99.90
11320;DHT22;5715;48.234;14.320;2023-03-14T10:09:22;9.10;99.90
11320;DHT22;5715;48.234;14.320;2023-03-14T10:12:14;9.10;99.90
11320;DHT22;5715;48.234;14.320;2023-03-14T10:15:12;9.10;99.90
11320;DHT22;5715;48.234;14.320;2023-03-14T10:18:11;9.20;99.90
11320;DHT22;5715;48.234;14.320;2023-03-14T10:21:28;9.30;99.90
11320;DHT22;5715;48.234;14.320;2023-03-14T10:24:26;9.30;99.90
11320;DHT22;5715;48.234;14.320;2023-03-14T10:27:21;9.40;99.90
11320;DHT22;5715;48.234;14.320;2023-03-14T10:30:47;9.50;99.90
11320;DHT22;5715;48.234;14.320;2023-03-14T10:33:36;9.60;99.90
11320;DHT22;5715;48.234;14.320;2023-03-14T10:36:28;9.70;99.90
11320;DHT22;5715;48.234;14.320;2023-03-14T10:42:19;9.60;99.90
11320;DHT22;5715;48.234;14.320;2023-03-14T10:45:41;9.50;99.90
11320;DHT22;5715;48.234;14.320;2023-03-14T10:48:38;9.50;99.90
11320;DHT22;5715;48.234;14.320;2023-03-14T10:51:30;9.40;99.90
11320;DHT22;5715;48.234;14.320;2023-03-14T10:54:22;9.40;99.90
11320;DHT22;5715;48.234;14.320;2023-03-14T10:57:13;9.40;99.90
11320;DHT22;5715;48.234;14.320;2023-03-14T11:00:00;9.30;99.90
11320;DHT22;5715;48.234;14.320;2023-03-14T11:06:14;9.20;99.90
11320;DHT22;5715;48.234;14.320;2023-03-14T11:16:21;9.30;99.90
11320;DHT22;5715;48.234;14.320;2023-03-14T11:25:53;9.50;99.90
11320;DHT22;5715;48.234;14.320;2023-03-14T11:28:50;9.60;99.90
11320;DHT22;5715;48.234;14.320;2023-03-14T11:31:45;9.60;99.90
11320;DHT22;5715;48.234;14.320;2023-03-14T11:34:40;9.60;99.90
11320;DHT22;5715;48.234;14.320;2023-03-14T11:37:47;9.70;99.90
11320;DHT22;5715;48.234;14.320;2023-03-14T11:40:56;9.80;99.90
11320;DHT22;5715;48.234;14.320;2023-03-14T11:43:54;9.90;99.90
11320;DHT22;5715;48.234;14.320;2023-03-14T11:50:18;10.00;99.90
11320;DHT22;5715;48.234;14.320;2023-03-14T11:53:50;10.10;99.90
11320;DHT22;5715;48.234;14.320;2023-03-14T12:00:00;10.30;99.90
11320;DHT22;5715;48.234;14.320;2023-03-14T12:03:11;10.40;99.90
11320;DHT22;5715;48.234;14.320;2023-03-14T12:06:21;10.50;99.90
11320;DHT22;5715;48.234;14.320;2023-03-14T12:09:21;10.50;99.90
11320;DHT22;5715;48.234;14.320;2023-03-14T12:12:12;10.50;99.90
11320;DHT22;5715;48.234;14.320;2023-03-14T12:15:04;10.60;99.90
11320;DHT22;5715;48.234;14.320;2023-03-14T12:17:54;10.70;99.90
11320;DHT22;5715;48.234;14.320;2023-03-14T12:20:51;10.70;99.90
11320;DHT22;5715;48.234;14.320;2023-03-14T12:23:55;10.70;99.90
11320;DHT22;5715;48.234;14.320;2023-03-14T12:26:52;10.70;99.90
11320;DHT22;5715;48.234;14.320;2023-03-14T12:29:58;10.70;99.90
11320;DHT22;5715;48.234;14.320;2023-03-14T12:36:04;10.70;99.90
11320;DHT22;5715;48.234;14.320;2023-03-14T12:45:35;10.70;99.90
11320;DHT22;5715;48.234;14.320;2023-03-14T12:48:25;10.70;99.90
11320;DHT22;5715;48.234;14.320;2023-03-14T12:51:16;10.80;99.90
11320;DHT22;5715;48.234;14.320;2023-03-14T13:00:19;11.10;99.90
11320;DHT22;5715;48.234;14.320;2023-03-14T13:06:12;11.20;99.90
11320;DHT22;5715;48.234;14.320;2023-03-14T13:12:18;11.20;99.90
11320;DHT22;5715;48.234;14.320;2023-03-14T13:15:19;11.20;99.90
11320;DHT22;5715;48.234;14.320;2023-03-14T13:18:15;11.30;99.90
11320;DHT22;5715;48.234;14.320;2023-03-14T13:21:24;11.20;99.90
11320;DHT22;5715;48.234;14.320;2023-03-14T13:24:25;11.30;99.90
11320;DHT22;5715;48.234;14.320;2023-03-14T13:27:18;11.30;99.90
11320;DHT22;5715;48.234;14.320;2023-03-14T13:30:18;11.30;99.90
11320;DHT22;5715;48.234;14.320;2023-03-14T13:33:20;11.40;99.90
11320;DHT22;5715;48.234;14.320;2023-03-14T13:36:09;11.30;99.90
11320;DHT22;5715;48.234;14.320;2023-03-14T13:39:01;11.20;99.90
11320;DHT22;5715;48.234;14.320;2023-03-14T13:41:58;11.30;99.90
11320;DHT22;5715;48.234;14.320;2023-03-14T13:44:47;11.20;99.90
11320;DHT22;5715;48.234;14.320;2023-03-14T13:47:38;11.20;99.90
11320;DHT22;5715;48.234;14.320;2023-03-14T13:50:27;11.10;99.90
11320;DHT22;5715;48.234;14.320;2023-03-14T13:53:14;11.10;99.90
11320;DHT22;5715;48.234;14.320;2023-03-14T13:56:03;11.00;99.90
11320;DHT22;5715;48.234;14.320;2023-03-14T13:58:51;10.90;99.90
11320;DHT22;5715;48.234;14.320;2023-03-14T14:01:39;10.80;99.90
11320;DHT22;5715;48.234;14.320;2023-03-14T14:04:27;10.80;99.90
11320;DHT22;5715;48.234;14.320;2023-03-14T14:07:17;10.80;99.90
11320;DHT22;5715;48.234;14.320;2023-03-14T14:10:06;10.80;99.90
11320;DHT22;5715;48.234;14.320;2023-03-14T14:13:01;10.90;99.90
11320;DHT22;5715;48.234;14.320;2023-03-14T14:15:52;11.00;99.90
11320;DHT22;5715;48.234;14.320;2023-03-14T14:18:42;11.00;99.90
11320;DHT22;5715;48.234;14.320;2023-03-14T14:21:30;11.10;99.90
11320;DHT22;5715;48.234;14.320;2023-03-14T14:24:21;11.20;99.90
11320;DHT22;5715;48.234;14.320;2023-03-14T14:27:28;11.20;99.90
11320;DHT22;5715;48.234;14.320;2023-03-14T14:33:20;11.40;99.90
11320;DHT22;5715;48.234;14.320;2023-03-14T14:36:22;11.60;99.90
11320;DHT22;5715;48.234;14.320;2023-03-14T14:39:31;11.70;99.90
11320;DHT22;5715;48.234;14.320;2023-03-14T14:42:20;11.90;99.90
11320;DHT22;5715;48.234;14.320;2023-03-14T14:45:21;12.00;99.90
11320;DHT22;5715;48.234;14.320;2023-03-14T14:48:13;11.90;99.90
11320;DHT22;5715;48.234;14.320;2023-03-14T14:51:03;11.80;99.90
11320;DHT22;5715;48.234;14.320;2023-03-14T14:54:13;11.80;99.90
11320;DHT22;5715;48.234;14.320;2023-03-14T14:57:21;11.70;99.90
11320;DHT22;5715;48.234;14.320;2023-03-14T15:00:19;11.70;99.90
11320;DHT22;5715;48.234;14.320;2023-03-14T15:03:13;11.60;99.90
11320;DHT22;5715;48.234;14.320;2023-03-14T15:06:03;11.60;99.90
11320;DHT22;5715;48.234;14.320;2023-03-14T15:08:52;11.50;99.90
11320;DHT22;5715;48.234;14.320;2023-03-14T15:11:40;11.50;99.90
11320;DHT22;5715;48.234;14.320;2023-03-14T15:14:27;11.50;99.90
11320;DHT22;5715;48.234;14.320;2023-03-14T15:17:15;11.50;99.90
11320;DHT22;5715;48.234;14.320;2023-03-14T15:20:09;11.70;99.90
11320;DHT22;5715;48.234;14.320;2023-03-14T15:23:00;11.90;99.90
11320;DHT22;5715;48.234;14.320;2023-03-14T15:25:48;11.80;99.90
11320;DHT22;5715;48.234;14.320;2023-03-14T15:28:43;11.90;99.90
11320;DHT22;5715;48.234;14.320;2023-03-14T15:31:31;11.80;99.90
11320;DHT22;5715;48.234;14.320;2023-03-14T15:34:18;11.70;99.90
11320;DHT22;5715;48.234;14.320;2023-03-14T15:37:11;11.50;99.90
11320;DHT22;5715;48.234;14.320;2023-03-14T15:40:05;11.40;99.90
11320;DHT22;5715;48.234;14.320;2023-03-14T15:43:00;11.40;99.90
11320;DHT22;5715;48.234;14.320;2023-03-14T15:45:48;11.30;99.90
11320;DHT22;5715;48.234;14.320;2023-03-14T15:48:37;11.10;99.90
11320;DHT22;5715;48.234;14.320;2023-03-14T15:51:25;10.90;99.90
11320;DHT22;5715;48.234;14.320;2023-03-14T15:54:12;10.80;99.90
11320;DHT22;5715;48.234;14.320;2023-03-14T15:57:00;10.70;99.90
11320;DHT22;5715;48.234;14.320;2023-03-14T15:59:48;10.60;99.90
11320;DHT22;5715;48.234;14.320;2023-03-14T16:02:35;10.50;99.90
11320;DHT22;5715;48.234;14.320;2023-03-14T16:05:27;10.40;99.90
11320;DHT22;5715;48.234;14.320;2023-03-14T16:08:14;10.30;99.90
11320;DHT22;5715;48.234;14.320;2023-03-14T16:11:03;10.20;99.90
11320;DHT22;5715;48.234;14.320;2023-03-14T16:13:52;10.20;99.90
11320;DHT22;5715;48.234;14.320;2023-03-14T16:16:39;10.10;99.90
11320;DHT22;5715;48.234;14.320;2023-03-14T16:19:27;10.10;99.90
11320;DHT22;5715;48.234;14.320;2023-03-14T16:22:15;10.00;99.90
11320;DHT22;5715;48.234;14.320;2023-03-14T16:25:07;9.90;99.90
11320;DHT22;5715;48.234;14.320;2023-03-14T16:27:55;9.90;99.90
11320;DHT22;5715;48.234;14.320;2023-03-14T16:31:04;9.90;99.90
11320;DHT22;5715;48.234;14.320;2023-03-14T16:33:53;9.90;99.90
11320;DHT22;5715;48.234;14.320;2023-03-14T16:36:41;9.90;99.90
11320;DHT22;5715;48.234;14.320;2023-03-14T16:39:28;10.00;99.90
11320;DHT22;5715;48.234;14.320;2023-03-14T16:42:18;10.00;99.90
11320;DHT22;5715;48.234;14.320;2023-03-14T16:45:07;10.00;99.90
11320;DHT22;5715;48.234;14.320;2023-03-14T16:47:56;10.00;99.90
11320;DHT22;5715;48.234;14.320;2023-03-14T16:50:43;10.10;99.90
11320;DHT22;5715;48.234;14.320;2023-03-14T16:53:31;10.10;99.90
11320;DHT22;5715;48.234;14.320;2023-03-14T16:56:18;10.10;99.90
11320;DHT22;5715;48.234;14.320;2023-03-14T16:59:06;10.10;99.90
11320;DHT22;5715;48.234;14.320;2023-03-14T17:01:54;10.10;99.90
11320;DHT22;5715;48.234;14.320;2023-03-14T17:04:42;10.10;99.90
11320;DHT22;5715;48.234;14.320;2023-03-14T17:07:30;10.00;99.90
11320;DHT22;5715;48.234;14.320;2023-03-14T17:10:17;9.90;99.90
11320;DHT22;5715;48.234;14.320;2023-03-14T17:13:05;9.70;99.90
11320;DHT22;5715;48.234;14.320;2023-03-14T17:15:54;9.50;99.90
11320;DHT22;5715;48.234;14.320;2023-03-14T17:18:43;9.40;99.90
11320;DHT22;5715;48.234;14.320;2023-03-14T17:21:31;9.30;99.90
11320;DHT22;5715;48.234;14.320;2023-03-14T17:24:18;9.30;99.90
11320;DHT22;5715;48.234;14.320;2023-03-14T17:27:06;9.20;99.90
11320;DHT22;5715;48.234;14.320;2023-03-14T17:29:54;9.20;99.90
11320;DHT22;5715;48.234;14.320;2023-03-14T17:32:41;9.10;99.90
11320;DHT22;5715;48.234;14.320;2023-03-14T17:35:29;9.10;99.90
11320;DHT22;5715;48.234;14.320;2023-03-14T17:38:16;9.00;99.90
11320;DHT22;5715;48.234;14.320;2023-03-14T17:41:13;9.00;99.90
11320;DHT22;5715;48.234;14.320;2023-03-14T17:44:01;9.00;99.90
11320;DHT22;5715;48.234;14.320;2023-03-14T17:46:49;8.90;99.90
11320;DHT22;5715;48.234;14.320;2023-03-14T17:49:37;9.00;99.90
11320;DHT22;5715;48.234;14.320;2023-03-14T17:52:24;8.90;99.90
11320;DHT22;5715;48.234;14.320;2023-03-14T17:55:12;8.90;99.90
11320;DHT22;5715;48.234;14.320;2023-03-14T17:58:00;8.90;99.90
11320;DHT22;5715;48.234;14.320;2023-03-14T18:00:49;8.90;99.90
11320;DHT22;5715;48.234;14.320;2023-03-14T18:03:37;8.90;99.90
11320;DHT22;5715;48.234;14.320;2023-03-14T18:06:25;9.00;99.90
11320;DHT22;5715;48.234;14.320;2023-03-14T18:09:16;8.90;99.90
11320;DHT22;5715;48.234;14.320;2023-03-14T18:12:03;8.90;99.90
11320;DHT22;5715;48.234;14.320;2023-03-14T18:14:54;8.90;99.90
11320;DHT22;5715;48.234;14.320;2023-03-14T18:17:42;8.90;99.90
11320;DHT22;5715;48.234;14.320;2023-03-14T18:20:29;8.80;99.90
11320;DHT22;5715;48.234;14.320;2023-03-14T18:23:17;8.80;99.90
11320;DHT22;5715;48.234;14.320;2023-03-14T18:26:05;8.70;99.90
11320;DHT22;5715;48.234;14.320;2023-03-14T18:28:53;8.70;99.90
11320;DHT22;5715;48.234;14.320;2023-03-14T18:31:42;8.70;99.90
11320;DHT22;5715;48.234;14.320;2023-03-14T18:34:30;8.70;99.90
11320;DHT22;5715;48.234;14.320;2023-03-14T18:37:19;8.70;99.90
11320;DHT22;5715;48.234;14.320;2023-03-14T18:40:07;8.70;99.90
11320;DHT22;5715;48.234;14.320;2023-03-14T18:42:59;8.70;99.90
11320;DHT22;5715;48.234;14.320;2023-03-14T18:45:47;8.70;99.90
11320;DHT22;5715;48.234;14.320;2023-03-14T18:48:34;8.50;99.90
11320;DHT22;5715;48.234;14.320;2023-03-14T18:51:29;8.20;99.90
11320;DHT22;5715;48.234;14.320;2023-03-14T18:54:18;8.00;99.90
11320;DHT22;5715;48.234;14.320;2023-03-14T18:57:05;7.90;99.90
11320;DHT22;5715;48.234;14.320;2023-03-14T18:59:53;7.90;99.90
11320;DHT22;5715;48.234;14.320;2023-03-14T19:02:42;7.80;99.90
11320;DHT22;5715;48.234;14.320;2023-03-14T19:05:30;7.80;99.90
11320;DHT22;5715;48.234;14.320;2023-03-14T19:08:17;7.80;99.90
11320;DHT22;5715;48.234;14.320;2023-03-14T19:11:07;7.80;99.90
11320;DHT22;5715;48.234;14.320;2023-03-14T19:13:57;7.80;99.90
11320;DHT22;5715;48.234;14.320;2023-03-14T19:16:46;7.80;99.90